sensor_id;sensor_type;location;lat;lon;timestamp;temperature;humidity
68450;SHT30;67758;39.572;2.652;2023-07-13T00:02:03;28.09;83.32
68450;SHT30;67758;39.572;2.652;2023-07-13T00:04:28;28.08;83.30
68450;SHT30;67758;39.572;2.652;2023-07-13T00:06:54;27.98;83.44
68450;SHT30;67758;39.572;2.652;2023-07-13T00:09:20;27.91;83.57
68450;SHT30;67758;39.572;2.652;2023-07-13T00:11:54;28.09;83.08
68450;SHT30;67758;39.572;2.652;2023-07-13T00:14:19;28.13;82.98
68450;SHT30;67758;39.572;2.652;2023-07-13T00:16:45;28.04;83.05
68450;SHT30;67758;39.572;2.652;2023-07-13T00:19:12;28.04;83.26
68450;SHT30;67758;39.572;2.652;2023-07-13T00:21:39;27.89;83.38
68450;SHT30;67758;39.572;2.652;2023-07-13T00:24:06;27.81;83.70
68450;SHT30;67758;39.572;2.652;2023-07-13T00:26:32;27.77;83.76
68450;SHT30;67758;39.572;2.652;2023-07-13T00:28:58;27.85;83.62
68450;SHT30;67758;39.572;2.652;2023-07-13T00:31:27;28.01;82.90
68450;SHT30;67758;39.572;2.652;2023-07-13T00:33:53;28.13;82.62
68450;SHT30;67758;39.572;2.652;2023-07-13T00:36:21;28.01;82.73
68450;SHT30;67758;39.572;2.652;2023-07-13T00:38:47;28.06;82.56
68450;SHT30;67758;39.572;2.652;2023-07-13T00:41:13;28.09;82.31
68450;SHT30;67758;39.572;2.652;2023-07-13T00:43:42;28.06;82.18
68450;SHT30;67758;39.572;2.652;2023-07-13T00:46:14;28.08;81.95
68450;SHT30;67758;39.572;2.652;2023-07-13T00:48:41;28.09;81.91
68450;SHT30;67758;39.572;2.652;2023-07-13T00:51:08;27.98;81.81
68450;SHT30;67758;39.572;2.652;2023-07-13T00:53:37;27.78;82.34
68450;SHT30;67758;39.572;2.652;2023-07-13T00:56:03;28.04;81.98
68450;SHT30;67758;39.572;2.652;2023-07-13T00:58:29;27.94;81.54
68450;SHT30;67758;39.572;2.652;2023-07-13T01:00:55;27.95;81.87
68450;SHT30;67758;39.572;2.652;2023-07-13T01:03:21;28.01;81.26
68450;SHT30;67758;39.572;2.652;2023-07-13T01:05:48;27.89;81.52
68450;SHT30;67758;39.572;2.652;2023-07-13T01:08:15;27.78;81.43
68450;SHT30;67758;39.572;2.652;2023-07-13T01:10:50;27.98;81.16
68450;SHT30;67758;39.572;2.652;2023-07-13T01:13:15;27.96;81.14
68450;SHT30;67758;39.572;2.652;2023-07-13T01:15:44;28.01;80.62
68450;SHT30;67758;39.572;2.652;2023-07-13T01:18:13;27.91;80.77
68450;SHT30;67758;39.572;2.652;2023-07-13T01:20:40;27.96;80.06
68450;SHT30;67758;39.572;2.652;2023-07-13T01:23:09;27.89;80.16
68450;SHT30;67758;39.572;2.652;2023-07-13T01:25:37;27.91;80.19
68450;SHT30;67758;39.572;2.652;2023-07-13T01:28:07;28.05;80.14
68450;SHT30;67758;39.572;2.652;2023-07-13T01:30:35;27.94;80.14
68450;SHT30;67758;39.572;2.652;2023-07-13T01:33:01;27.81;80.44
68450;SHT30;67758;39.572;2.652;2023-07-13T01:35:29;27.82;80.34
68450;SHT30;67758;39.572;2.652;2023-07-13T01:37:55;27.88;80.18
68450;SHT30;67758;39.572;2.652;2023-07-13T01:40:22;28.01;79.91
68450;SHT30;67758;39.572;2.652;2023-07-13T01:42:48;27.99;79.25
68450;SHT30;67758;39.572;2.652;2023-07-13T01:45:14;27.92;79.46
68450;SHT30;67758;39.572;2.652;2023-07-13T01:47:40;28.01;79.39
68450;SHT30;67758;39.572;2.652;2023-07-13T01:50:05;28.09;79.15
68450;SHT30;67758;39.572;2.652;2023-07-13T01:52:31;27.89;79.25
68450;SHT30;67758;39.572;2.652;2023-07-13T01:54:58;27.69;79.90
68450;SHT30;67758;39.572;2.652;2023-07-13T01:57:23;27.78;80.00
68450;SHT30;67758;39.572;2.652;2023-07-13T01:59:49;27.78;79.78
68450;SHT30;67758;39.572;2.652;2023-07-13T02:02:15;27.88;79.47
68450;SHT30;67758;39.572;2.652;2023-07-13T02:04:40;27.77;79.69
68450;SHT30;67758;39.572;2.652;2023-07-13T02:07:08;27.64;80.24
68450;SHT30;67758;39.572;2.652;2023-07-13T02:09:34;27.88;79.46
68450;SHT30;67758;39.572;2.652;2023-07-13T02:11:59;27.91;79.37
68450;SHT30;67758;39.572;2.652;2023-07-13T02:14:25;27.89;78.99
68450;SHT30;67758;39.572;2.652;2023-07-13T02:16:51;28.02;78.93
68450;SHT30;67758;39.572;2.652;2023-07-13T02:19:16;27.94;78.76
68450;SHT30;67758;39.572;2.652;2023-07-13T02:21:43;28.01;78.44
68450;SHT30;67758;39.572;2.652;2023-07-13T02:24:08;28.01;78.49
68450;SHT30;67758;39.572;2.652;2023-07-13T02:26:34;27.91;78.28
68450;SHT30;67758;39.572;2.652;2023-07-13T02:29:00;27.82;78.54
68450;SHT30;67758;39.572;2.652;2023-07-13T02:31:25;27.87;78.23
68450;SHT30;67758;39.572;2.652;2023-07-13T02:33:51;27.98;77.99
68450;SHT30;67758;39.572;2.652;2023-07-13T02:36:17;27.88;77.64
68450;SHT30;67758;39.572;2.652;2023-07-13T02:38:44;27.74;77.59
68450;SHT30;67758;39.572;2.652;2023-07-13T02:41:10;27.89;77.57
68450;SHT30;67758;39.572;2.652;2023-07-13T02:43:37;27.77;77.87
68450;SHT30;67758;39.572;2.652;2023-07-13T02:46:03;27.67;78.14
68450;SHT30;67758;39.572;2.652;2023-07-13T02:48:33;27.68;78.10
68450;SHT30;67758;39.572;2.652;2023-07-13T02:50:59;27.38;78.30
68450;SHT30;67758;39.572;2.652;2023-07-13T02:53:25;27.47;78.68
68450;SHT30;67758;39.572;2.652;2023-07-13T02:55:51;27.36;78.34
68450;SHT30;67758;39.572;2.652;2023-07-13T02:58:17;27.51;78.13
68450;SHT30;67758;39.572;2.652;2023-07-13T03:00:43;27.46;78.13
68450;SHT30;67758;39.572;2.652;2023-07-13T03:03:12;27.40;78.45
68450;SHT30;67758;39.572;2.652;2023-07-13T03:05:41;27.23;77.94
68450;SHT30;67758;39.572;2.652;2023-07-13T03:08:08;27.36;77.66
68450;SHT30;67758;39.572;2.652;2023-07-13T03:10:34;27.23;77.84
68450;SHT30;67758;39.572;2.652;2023-07-13T03:12:59;27.30;77.80
68450;SHT30;67758;39.572;2.652;2023-07-13T03:15:25;27.46;77.21
68450;SHT30;67758;39.572;2.652;2023-07-13T03:17:52;27.23;77.30
68450;SHT30;67758;39.572;2.652;2023-07-13T03:20:18;27.26;77.42
68450;SHT30;67758;39.572;2.652;2023-07-13T03:22:44;27.27;77.33
68450;SHT30;67758;39.572;2.652;2023-07-13T03:25:09;27.16;77.59
68450;SHT30;67758;39.572;2.652;2023-07-13T03:27:36;27.16;77.53
68450;SHT30;67758;39.572;2.652;2023-07-13T03:30:06;27.20;77.56
68450;SHT30;67758;39.572;2.652;2023-07-13T03:32:32;27.23;77.47
68450;SHT30;67758;39.572;2.652;2023-07-13T03:34:58;27.04;77.85
68450;SHT30;67758;39.572;2.652;2023-07-13T03:37:27;27.20;77.38
68450;SHT30;67758;39.572;2.652;2023-07-13T03:39:53;27.08;77.75
68450;SHT30;67758;39.572;2.652;2023-07-13T03:42:21;27.14;77.70
68450;SHT30;67758;39.572;2.652;2023-07-13T03:44:47;27.14;77.06
68450;SHT30;67758;39.572;2.652;2023-07-13T03:47:18;27.06;77.15
68450;SHT30;67758;39.572;2.652;2023-07-13T03:49:43;27.22;76.79
68450;SHT30;67758;39.572;2.652;2023-07-13T03:52:09;27.33;76.76
68450;SHT30;67758;39.572;2.652;2023-07-13T03:54:37;27.30;76.03
68450;SHT30;67758;39.572;2.652;2023-07-13T03:57:03;27.22;75.84
68450;SHT30;67758;39.572;2.652;2023-07-13T03:59:29;27.20;76.43
68450;SHT30;67758;39.572;2.652;2023-07-13T04:01:54;27.18;75.57
68450;SHT30;67758;39.572;2.652;2023-07-13T04:04:20;27.23;75.37
68450;SHT30;67758;39.572;2.652;2023-07-13T04:06:46;27.10;74.85
68450;SHT30;67758;39.572;2.652;2023-07-13T04:09:12;27.18;74.87
68450;SHT30;67758;39.572;2.652;2023-07-13T04:11:37;27.20;74.52
68450;SHT30;67758;39.572;2.652;2023-07-13T04:14:03;27.24;73.67
68450;SHT30;67758;39.572;2.652;2023-07-13T04:16:29;27.10;72.64
68450;SHT30;67758;39.572;2.652;2023-07-13T04:18:56;27.14;73.77
68450;SHT30;67758;39.572;2.652;2023-07-13T04:21:29;27.13;73.35
68450;SHT30;67758;39.572;2.652;2023-07-13T04:23:54;27.13;72.80
68450;SHT30;67758;39.572;2.652;2023-07-13T04:26:21;27.13;71.79
68450;SHT30;67758;39.572;2.652;2023-07-13T04:28:48;27.11;71.59
68450;SHT30;67758;39.572;2.652;2023-07-13T04:31:14;27.07;69.65
68450;SHT30;67758;39.572;2.652;2023-07-13T04:33:43;27.06;69.52
68450;SHT30;67758;39.572;2.652;2023-07-13T04:36:09;26.97;69.55
68450;SHT30;67758;39.572;2.652;2023-07-13T04:38:35;27.16;69.95
68450;SHT30;67758;39.572;2.652;2023-07-13T04:41:04;27.24;69.80
68450;SHT30;67758;39.572;2.652;2023-07-13T04:43:31;27.11;69.06
68450;SHT30;67758;39.572;2.652;2023-07-13T04:45:57;27.13;68.80
68450;SHT30;67758;39.572;2.652;2023-07-13T04:48:23;27.16;68.73
68450;SHT30;67758;39.572;2.652;2023-07-13T04:50:57;27.14;68.60
68450;SHT30;67758;39.572;2.652;2023-07-13T04:53:23;27.03;69.11
68450;SHT30;67758;39.572;2.652;2023-07-13T04:55:49;27.17;69.07
68450;SHT30;67758;39.572;2.652;2023-07-13T04:58:14;27.22;68.91
68450;SHT30;67758;39.572;2.652;2023-07-13T05:00:40;27.14;68.74
68450;SHT30;67758;39.572;2.652;2023-07-13T05:03:06;27.11;69.27
68450;SHT30;67758;39.572;2.652;2023-07-13T05:05:31;27.00;68.72
68450;SHT30;67758;39.572;2.652;2023-07-13T05:07:57;27.04;68.86
68450;SHT30;67758;39.572;2.652;2023-07-13T05:10:23;27.14;68.98
68450;SHT30;67758;39.572;2.652;2023-07-13T05:12:49;26.92;69.00
68450;SHT30;67758;39.572;2.652;2023-07-13T05:15:15;27.10;69.70
68450;SHT30;67758;39.572;2.652;2023-07-13T05:17:46;26.93;69.81
68450;SHT30;67758;39.572;2.652;2023-07-13T05:20:12;27.08;68.92
68450;SHT30;67758;39.572;2.652;2023-07-13T05:22:38;27.22;69.10
68450;SHT30;67758;39.572;2.652;2023-07-13T05:25:05;27.13;68.97
68450;SHT30;67758;39.572;2.652;2023-07-13T05:27:33;27.22;68.81
68450;SHT30;67758;39.572;2.652;2023-07-13T05:30:00;27.17;69.43
68450;SHT30;67758;39.572;2.652;2023-07-13T05:32:25;27.10;69.16
68450;SHT30;67758;39.572;2.652;2023-07-13T05:34:51;27.10;68.79
68450;SHT30;67758;39.572;2.652;2023-07-13T05:37:17;27.11;69.10
68450;SHT30;67758;39.572;2.652;2023-07-13T05:39:43;27.20;69.08
68450;SHT30;67758;39.572;2.652;2023-07-13T05:42:09;27.03;69.05
68450;SHT30;67758;39.572;2.652;2023-07-13T05:44:37;27.20;68.86
68450;SHT30;67758;39.572;2.652;2023-07-13T05:47:03;27.24;69.08
68450;SHT30;67758;39.572;2.652;2023-07-13T05:49:29;27.24;69.02
68450;SHT30;67758;39.572;2.652;2023-07-13T05:51:56;27.16;69.26
68450;SHT30;67758;39.572;2.652;2023-07-13T05:54:22;27.36;69.28
68450;SHT30;67758;39.572;2.652;2023-07-13T05:56:48;27.34;69.29
68450;SHT30;67758;39.572;2.652;2023-07-13T05:59:13;27.41;69.11
68450;SHT30;67758;39.572;2.652;2023-07-13T06:01:39;27.46;69.25
68450;SHT30;67758;39.572;2.652;2023-07-13T06:04:05;27.47;69.04
68450;SHT30;67758;39.572;2.652;2023-07-13T06:06:30;27.50;68.48
68450;SHT30;67758;39.572;2.652;2023-07-13T06:08:56;27.58;68.85
68450;SHT30;67758;39.572;2.652;2023-07-13T06:11:24;27.67;68.11
68450;SHT30;67758;39.572;2.652;2023-07-13T06:13:50;27.68;68.51
68450;SHT30;67758;39.572;2.652;2023-07-13T06:16:16;27.72;68.02
68450;SHT30;67758;39.572;2.652;2023-07-13T06:18:43;27.67;68.31
68450;SHT30;67758;39.572;2.652;2023-07-13T06:21:12;27.62;67.92
68450;SHT30;67758;39.572;2.652;2023-07-13T06:23:38;27.67;68.05
68450;SHT30;67758;39.572;2.652;2023-07-13T06:26:04;27.78;68.20
68450;SHT30;67758;39.572;2.652;2023-07-13T06:28:30;27.82;68.09
68450;SHT30;67758;39.572;2.652;2023-07-13T06:30:59;27.84;67.77
68450;SHT30;67758;39.572;2.652;2023-07-13T06:33:25;27.77;67.26
68450;SHT30;67758;39.572;2.652;2023-07-13T06:35:52;27.78;66.90
68450;SHT30;67758;39.572;2.652;2023-07-13T06:38:17;27.88;67.04
68450;SHT30;67758;39.572;2.652;2023-07-13T06:40:43;27.98;66.93
68450;SHT30;67758;39.572;2.652;2023-07-13T06:43:09;27.98;66.92
68450;SHT30;67758;39.572;2.652;2023-07-13T06:45:45;28.12;67.02
68450;SHT30;67758;39.572;2.652;2023-07-13T06:48:13;28.15;66.48
68450;SHT30;67758;39.572;2.652;2023-07-13T06:50:39;28.10;66.15
68450;SHT30;67758;39.572;2.652;2023-07-13T06:53:05;28.08;66.46
68450;SHT30;67758;39.572;2.652;2023-07-13T06:55:30;28.19;66.43
68450;SHT30;67758;39.572;2.652;2023-07-13T06:57:57;28.22;66.38
68450;SHT30;67758;39.572;2.652;2023-07-13T07:00:23;28.26;66.62
68450;SHT30;67758;39.572;2.652;2023-07-13T07:02:49;28.35;66.16
68450;SHT30;67758;39.572;2.652;2023-07-13T07:05:14;28.23;66.28
68450;SHT30;67758;39.572;2.652;2023-07-13T07:07:40;28.32;66.12
68450;SHT30;67758;39.572;2.652;2023-07-13T07:10:06;28.43;65.99
68450;SHT30;67758;39.572;2.652;2023-07-13T07:12:32;28.49;66.54
68450;SHT30;67758;39.572;2.652;2023-07-13T07:14:57;28.45;67.03
68450;SHT30;67758;39.572;2.652;2023-07-13T07:17:23;28.36;66.21
68450;SHT30;67758;39.572;2.652;2023-07-13T07:19:50;28.50;66.75
68450;SHT30;67758;39.572;2.652;2023-07-13T07:22:16;28.57;67.30
68450;SHT30;67758;39.572;2.652;2023-07-13T07:24:41;28.36;66.83
68450;SHT30;67758;39.572;2.652;2023-07-13T07:27:07;28.26;67.34
68450;SHT30;67758;39.572;2.652;2023-07-13T07:29:33;28.40;66.23
68450;SHT30;67758;39.572;2.652;2023-07-13T07:31:59;28.59;66.27
68450;SHT30;67758;39.572;2.652;2023-07-13T07:34:25;28.69;66.03
68450;SHT30;67758;39.572;2.652;2023-07-13T07:36:51;28.69;65.19
68450;SHT30;67758;39.572;2.652;2023-07-13T07:39:17;28.70;64.97
68450;SHT30;67758;39.572;2.652;2023-07-13T07:41:43;28.69;64.36
68450;SHT30;67758;39.572;2.652;2023-07-13T07:44:08;28.74;64.34
68450;SHT30;67758;39.572;2.652;2023-07-13T07:46:35;28.84;65.09
68450;SHT30;67758;39.572;2.652;2023-07-13T07:49:01;28.83;64.89
68450;SHT30;67758;39.572;2.652;2023-07-13T07:51:27;28.89;65.03
68450;SHT30;67758;39.572;2.652;2023-07-13T07:53:53;28.98;64.69
68450;SHT30;67758;39.572;2.652;2023-07-13T07:56:19;29.08;64.62
68450;SHT30;67758;39.572;2.652;2023-07-13T07:58:49;29.11;64.52
68450;SHT30;67758;39.572;2.652;2023-07-13T08:01:15;29.21;63.49
68450;SHT30;67758;39.572;2.652;2023-07-13T08:03:41;29.28;63.39
68450;SHT30;67758;39.572;2.652;2023-07-13T08:06:07;29.31;62.32
68450;SHT30;67758;39.572;2.652;2023-07-13T08:08:32;29.32;62.72
68450;SHT30;67758;39.572;2.652;2023-07-13T08:11:03;29.32;60.54
68450;SHT30;67758;39.572;2.652;2023-07-13T08:13:28;29.30;60.42
68450;SHT30;67758;39.572;2.652;2023-07-13T08:15:54;29.37;58.97
68450;SHT30;67758;39.572;2.652;2023-07-13T08:18:19;29.35;60.56
68450;SHT30;67758;39.572;2.652;2023-07-13T08:20:45;29.47;60.23
68450;SHT30;67758;39.572;2.652;2023-07-13T08:23:11;29.52;60.15
68450;SHT30;67758;39.572;2.652;2023-07-13T08:25:36;29.51;57.62
68450;SHT30;67758;39.572;2.652;2023-07-13T08:28:03;29.65;57.56
68450;SHT30;67758;39.572;2.652;2023-07-13T08:30:29;29.62;57.56
68450;SHT30;67758;39.572;2.652;2023-07-13T08:32:54;29.66;56.28
68450;SHT30;67758;39.572;2.652;2023-07-13T08:35:20;29.68;56.49
68450;SHT30;67758;39.572;2.652;2023-07-13T08:37:46;29.75;56.20
68450;SHT30;67758;39.572;2.652;2023-07-13T08:40:12;29.79;56.79
68450;SHT30;67758;39.572;2.652;2023-07-13T08:42:46;29.83;56.82
68450;SHT30;67758;39.572;2.652;2023-07-13T08:45:28;29.78;57.40
68450;SHT30;67758;39.572;2.652;2023-07-13T08:48:01;29.79;57.63
68450;SHT30;67758;39.572;2.652;2023-07-13T08:50:31;29.76;58.39
68450;SHT30;67758;39.572;2.652;2023-07-13T08:53:00;29.81;57.10
68450;SHT30;67758;39.572;2.652;2023-07-13T08:55:33;29.79;56.05
68450;SHT30;67758;39.572;2.652;2023-07-13T08:58:13;29.85;55.63
68450;SHT30;67758;39.572;2.652;2023-07-13T09:10:03;30.03;55.77
68450;SHT30;67758;39.572;2.652;2023-07-13T09:12:31;30.03;54.45
68450;SHT30;67758;39.572;2.652;2023-07-13T09:14:59;30.20;54.55
68450;SHT30;67758;39.572;2.652;2023-07-13T09:17:30;30.20;54.53
68450;SHT30;67758;39.572;2.652;2023-07-13T09:20:00;30.24;55.15
68450;SHT30;67758;39.572;2.652;2023-07-13T09:22:32;30.24;56.12
68450;SHT30;67758;39.572;2.652;2023-07-13T09:25:10;30.34;55.98
68450;SHT30;67758;39.572;2.652;2023-07-13T09:27:43;30.50;56.01
68450;SHT30;67758;39.572;2.652;2023-07-13T09:32:41;30.73;54.19
68450;SHT30;67758;39.572;2.652;2023-07-13T09:35:12;30.48;55.16
68450;SHT30;67758;39.572;2.652;2023-07-13T09:37:43;30.51;55.79
68450;SHT30;67758;39.572;2.652;2023-07-13T09:40:23;30.56;53.91
68450;SHT30;67758;39.572;2.652;2023-07-13T09:42:53;30.57;51.97
68450;SHT30;67758;39.572;2.652;2023-07-13T09:45:28;30.68;52.08
68450;SHT30;67758;39.572;2.652;2023-07-13T09:48:03;30.83;52.35
68450;SHT30;67758;39.572;2.652;2023-07-13T09:50:29;30.81;52.59
68450;SHT30;67758;39.572;2.652;2023-07-13T09:52:55;30.87;52.15
68450;SHT30;67758;39.572;2.652;2023-07-13T09:55:31;30.94;51.27
68450;SHT30;67758;39.572;2.652;2023-07-13T09:57:58;31.01;52.29
68450;SHT30;67758;39.572;2.652;2023-07-13T10:00:29;31.10;51.36
68450;SHT30;67758;39.572;2.652;2023-07-13T10:03:23;31.38;51.06
68450;SHT30;67758;39.572;2.652;2023-07-13T10:05:51;31.39;49.94
68450;SHT30;67758;39.572;2.652;2023-07-13T10:10:46;31.62;49.79
68450;SHT30;67758;39.572;2.652;2023-07-13T10:13:43;31.63;50.79
68450;SHT30;67758;39.572;2.652;2023-07-13T10:16:09;31.55;51.92
68450;SHT30;67758;39.572;2.652;2023-07-13T10:18:45;31.73;51.29
68450;SHT30;67758;39.572;2.652;2023-07-13T10:23:40;31.87;50.22
68450;SHT30;67758;39.572;2.652;2023-07-13T10:26:14;31.97;47.58
68450;SHT30;67758;39.572;2.652;2023-07-13T10:28:42;32.17;47.90
68450;SHT30;67758;39.572;2.652;2023-07-13T10:31:14;32.74;47.18
68450;SHT30;67758;39.572;2.652;2023-07-13T10:33:40;33.55;44.36
68450;SHT30;67758;39.572;2.652;2023-07-13T10:36:27;33.96;44.34
68450;SHT30;67758;39.572;2.652;2023-07-13T10:38:57;34.47;44.80
68450;SHT30;67758;39.572;2.652;2023-07-13T10:41:27;34.49;44.96
68450;SHT30;67758;39.572;2.652;2023-07-13T10:43:56;34.74;44.41
68450;SHT30;67758;39.572;2.652;2023-07-13T10:46:27;35.46;42.40
68450;SHT30;67758;39.572;2.652;2023-07-13T10:48:59;36.49;41.21
68450;SHT30;67758;39.572;2.652;2023-07-13T10:51:27;36.93;41.14
68450;SHT30;67758;39.572;2.652;2023-07-13T10:56:48;36.98;40.70
68450;SHT30;67758;39.572;2.652;2023-07-13T11:04:20;36.79;41.02
68450;SHT30;67758;39.572;2.652;2023-07-13T11:06:48;36.60;40.29
68450;SHT30;67758;39.572;2.652;2023-07-13T11:11:59;37.40;39.90
68450;SHT30;67758;39.572;2.652;2023-07-13T11:14:42;37.60;38.92
68450;SHT30;67758;39.572;2.652;2023-07-13T11:20:22;37.00;39.35
68450;SHT30;67758;39.572;2.652;2023-07-13T11:23:07;37.13;38.51
68450;SHT30;67758;39.572;2.652;2023-07-13T11:25:35;36.78;39.39
68450;SHT30;67758;39.572;2.652;2023-07-13T11:33:24;37.04;39.07
68450;SHT30;67758;39.572;2.652;2023-07-13T11:35:59;36.76;39.92
68450;SHT30;67758;39.572;2.652;2023-07-13T11:41:04;36.44;40.42
68450;SHT30;67758;39.572;2.652;2023-07-13T11:43:30;36.69;38.84
68450;SHT30;67758;39.572;2.652;2023-07-13T11:45:55;36.41;39.18
68450;SHT30;67758;39.572;2.652;2023-07-13T11:48:25;37.34;38.48
68450;SHT30;67758;39.572;2.652;2023-07-13T11:51:04;36.51;37.86
68450;SHT30;67758;39.572;2.652;2023-07-13T11:53:40;36.40;39.23
68450;SHT30;67758;39.572;2.652;2023-07-13T11:56:07;37.47;37.80
68450;SHT30;67758;39.572;2.652;2023-07-13T11:58:32;36.95;39.24
68450;SHT30;67758;39.572;2.652;2023-07-13T12:01:00;36.78;38.97
68450;SHT30;67758;39.572;2.652;2023-07-13T12:03:32;36.52;39.65
68450;SHT30;67758;39.572;2.652;2023-07-13T12:06:03;36.61;39.72
68450;SHT30;67758;39.572;2.652;2023-07-13T12:08:32;36.53;39.40
68450;SHT30;67758;39.572;2.652;2023-07-13T12:11:05;36.48;39.98
68450;SHT30;67758;39.572;2.652;2023-07-13T12:13:37;36.55;40.13
68450;SHT30;67758;39.572;2.652;2023-07-13T12:16:12;36.32;40.36
68450;SHT30;67758;39.572;2.652;2023-07-13T12:18:38;35.74;39.71
68450;SHT30;67758;39.572;2.652;2023-07-13T12:21:05;35.93;39.12
68450;SHT30;67758;39.572;2.652;2023-07-13T12:23:34;36.28;39.49
68450;SHT30;67758;39.572;2.652;2023-07-13T12:26:06;35.97;40.01
68450;SHT30;67758;39.572;2.652;2023-07-13T12:28:37;35.97;39.77
68450;SHT30;67758;39.572;2.652;2023-07-13T12:31:23;36.05;38.99
68450;SHT30;67758;39.572;2.652;2023-07-13T12:33:56;35.96;38.62
68450;SHT30;67758;39.572;2.652;2023-07-13T12:36:23;35.86;38.61
68450;SHT30;67758;39.572;2.652;2023-07-13T12:38:49;36.48;38.06
68450;SHT30;67758;39.572;2.652;2023-07-13T12:41:16;37.04;38.10
68450;SHT30;67758;39.572;2.652;2023-07-13T12:43:45;36.79;37.52
68450;SHT30;67758;39.572;2.652;2023-07-13T12:46:19;35.57;38.63
68450;SHT30;67758;39.572;2.652;2023-07-13T12:48:52;35.53;39.50
68450;SHT30;67758;39.572;2.652;2023-07-13T12:51:22;35.61;39.17
68450;SHT30;67758;39.572;2.652;2023-07-13T12:53:50;35.93;38.40
68450;SHT30;67758;39.572;2.652;2023-07-13T12:56:24;35.67;38.98
68450;SHT30;67758;39.572;2.652;2023-07-13T12:58:58;35.54;38.66
68450;SHT30;67758;39.572;2.652;2023-07-13T13:01:32;35.50;39.18
68450;SHT30;67758;39.572;2.652;2023-07-13T13:04:01;35.83;38.59
68450;SHT30;67758;39.572;2.652;2023-07-13T13:06:32;35.90;38.23
68450;SHT30;67758;39.572;2.652;2023-07-13T13:09:01;36.67;37.80
68450;SHT30;67758;39.572;2.652;2023-07-13T13:11:28;36.17;37.91
68450;SHT30;67758;39.572;2.652;2023-07-13T13:13:55;36.08;38.02
68450;SHT30;67758;39.572;2.652;2023-07-13T13:16:26;36.23;38.26
68450;SHT30;67758;39.572;2.652;2023-07-13T13:18:59;36.11;37.55
68450;SHT30;67758;39.572;2.652;2023-07-13T13:21:27;36.52;38.37
68450;SHT30;67758;39.572;2.652;2023-07-13T13:23:53;36.17;37.85
68450;SHT30;67758;39.572;2.652;2023-07-13T13:26:21;35.61;38.28
68450;SHT30;67758;39.572;2.652;2023-07-13T13:28:46;35.89;38.77
68450;SHT30;67758;39.572;2.652;2023-07-13T13:31:15;36.32;37.50
68450;SHT30;67758;39.572;2.652;2023-07-13T13:33:43;36.49;37.92
68450;SHT30;67758;39.572;2.652;2023-07-13T13:38:41;36.32;37.74
68450;SHT30;67758;39.572;2.652;2023-07-13T13:41:09;36.65;37.93
68450;SHT30;67758;39.572;2.652;2023-07-13T13:43:35;36.48;37.40
68450;SHT30;67758;39.572;2.652;2023-07-13T13:46:01;36.61;37.50
68450;SHT30;67758;39.572;2.652;2023-07-13T13:48:31;36.08;37.75
68450;SHT30;67758;39.572;2.652;2023-07-13T13:50:59;35.50;37.86
68450;SHT30;67758;39.572;2.652;2023-07-13T13:53:25;35.09;38.92
68450;SHT30;67758;39.572;2.652;2023-07-13T13:55:51;35.49;38.78
68450;SHT30;67758;39.572;2.652;2023-07-13T13:58:21;35.09;38.65
68450;SHT30;67758;39.572;2.652;2023-07-13T14:00:47;35.28;38.23
68450;SHT30;67758;39.572;2.652;2023-07-13T14:03:15;35.30;38.48
68450;SHT30;67758;39.572;2.652;2023-07-13T14:05:42;35.49;38.27
68450;SHT30;67758;39.572;2.652;2023-07-13T14:08:13;35.43;37.26
68450;SHT30;67758;39.572;2.652;2023-07-13T14:10:40;34.98;38.72
68450;SHT30;67758;39.572;2.652;2023-07-13T14:13:17;35.42;38.83
68450;SHT30;67758;39.572;2.652;2023-07-13T14:15:45;35.36;38.60
68450;SHT30;67758;39.572;2.652;2023-07-13T14:18:11;35.94;37.31
68450;SHT30;67758;39.572;2.652;2023-07-13T14:20:37;36.61;37.12
68450;SHT30;67758;39.572;2.652;2023-07-13T14:23:03;36.34;36.10
68450;SHT30;67758;39.572;2.652;2023-07-13T14:25:29;36.62;36.25
68450;SHT30;67758;39.572;2.652;2023-07-13T14:27:57;37.11;35.20
68450;SHT30;67758;39.572;2.652;2023-07-13T14:30:33;36.76;35.14
68450;SHT30;67758;39.572;2.652;2023-07-13T14:32:59;36.71;35.37
68450;SHT30;67758;39.572;2.652;2023-07-13T14:35:25;36.72;35.83
68450;SHT30;67758;39.572;2.652;2023-07-13T14:37:51;36.83;36.31
68450;SHT30;67758;39.572;2.652;2023-07-13T14:40:25;36.49;36.28
68450;SHT30;67758;39.572;2.652;2023-07-13T14:42:51;36.58;36.64
68450;SHT30;67758;39.572;2.652;2023-07-13T14:45:19;36.78;35.36
68450;SHT30;67758;39.572;2.652;2023-07-13T14:47:46;36.93;35.78
68450;SHT30;67758;39.572;2.652;2023-07-13T14:50:21;37.15;35.41
68450;SHT30;67758;39.572;2.652;2023-07-13T14:52:47;38.07;34.97
68450;SHT30;67758;39.572;2.652;2023-07-13T14:55:16;38.11;35.09
68450;SHT30;67758;39.572;2.652;2023-07-13T14:57:41;39.16;33.31
68450;SHT30;67758;39.572;2.652;2023-07-13T15:00:18;37.33;35.41
68450;SHT30;67758;39.572;2.652;2023-07-13T15:02:47;36.96;36.79
68450;SHT30;67758;39.572;2.652;2023-07-13T15:05:21;36.27;36.18
68450;SHT30;67758;39.572;2.652;2023-07-13T15:07:53;36.58;35.61
68450;SHT30;67758;39.572;2.652;2023-07-13T15:10:21;35.94;36.68
68450;SHT30;67758;39.572;2.652;2023-07-13T15:12:47;35.91;36.02
68450;SHT30;67758;39.572;2.652;2023-07-13T15:15:13;36.10;36.43
68450;SHT30;67758;39.572;2.652;2023-07-13T15:17:41;37.36;34.78
68450;SHT30;67758;39.572;2.652;2023-07-13T15:20:29;36.19;35.52
68450;SHT30;67758;39.572;2.652;2023-07-13T15:22:55;36.27;35.76
68450;SHT30;67758;39.572;2.652;2023-07-13T15:25:24;36.72;35.30
68450;SHT30;67758;39.572;2.652;2023-07-13T15:27:51;36.47;35.73
68450;SHT30;67758;39.572;2.652;2023-07-13T15:30:17;36.32;35.97
68450;SHT30;67758;39.572;2.652;2023-07-13T15:32:43;36.65;35.39
68450;SHT30;67758;39.572;2.652;2023-07-13T15:35:20;36.42;35.85
68450;SHT30;67758;39.572;2.652;2023-07-13T15:37:47;36.64;34.97
68450;SHT30;67758;39.572;2.652;2023-07-13T15:40:14;36.58;34.77
68450;SHT30;67758;39.572;2.652;2023-07-13T15:42:41;36.92;35.43
68450;SHT30;67758;39.572;2.652;2023-07-13T15:45:22;36.98;34.32
68450;SHT30;67758;39.572;2.652;2023-07-13T15:47:50;37.39;34.79
68450;SHT30;67758;39.572;2.652;2023-07-13T15:50:22;36.95;34.88
68450;SHT30;67758;39.572;2.652;2023-07-13T15:52:51;36.91;35.07
68450;SHT30;67758;39.572;2.652;2023-07-13T15:55:18;36.55;35.30
68450;SHT30;67758;39.572;2.652;2023-07-13T15:57:48;36.60;35.60
68450;SHT30;67758;39.572;2.652;2023-07-13T16:00:19;36.95;35.27
68450;SHT30;67758;39.572;2.652;2023-07-13T16:02:47;36.04;36.01
68450;SHT30;67758;39.572;2.652;2023-07-13T16:05:13;35.72;36.27
68450;SHT30;67758;39.572;2.652;2023-07-13T16:07:42;35.53;36.54
68450;SHT30;67758;39.572;2.652;2023-07-13T16:10:13;35.72;36.21
68450;SHT30;67758;39.572;2.652;2023-07-13T16:12:39;35.60;36.00
68450;SHT30;67758;39.572;2.652;2023-07-13T16:15:13;35.80;35.79
68450;SHT30;67758;39.572;2.652;2023-07-13T16:17:39;36.01;36.02